Time;durP1;ratioP1;P1;durP2;ratioP2;P2;SDS_P1;SDS_P2;PMS_P1;PMS_P2;Temp;Humidity;BMP_temperature;BMP_pressure;BME280_temperature;BME280_humidity;BME280_pressure;Samples;Min_cycle;Max_cycle;Signal;HPM_P1;HPM_P2
2022/02/23 00:01:05;;;;;;;35.95;6.32;;;;;;;10.38;62.01;100612.81;4796310;29;121223;-87
2022/02/23 00:03:31;;;;;;;39.65;7.15;;;;;;;10.54;62.84;100635.75;4809592;29;122438;-85
2022/02/23 00:05:56;;;;;;;37.33;6.32;;;;;;;10.49;63.05;100641.81;4805990;29;119909;-85
2022/02/23 00:08:22;;;;;;;32.65;6.18;;;;;;;10.73;63.34;100678.50;4801386;29;121954;-88
2022/02/23 00:10:47;;;;;;;41.40;7.68;;;;;;;10.67;62.95;100677.56;4793448;29;124362;-86
2022/02/23 00:13:13;;;;;;;35.72;7.05;;;;;;;10.44;63.12;100649.41;4798282;29;119863;-87
2022/02/23 00:15:41;;;;;;;38.50;7.53;;;;;;;10.47;63.49;100647.00;4781225;29;122378;-86
2022/02/23 00:18:15;;;;;;;33.53;6.43;;;;;;;10.59;63.81;100657.84;4807894;29;120561;-88
2022/02/23 00:20:40;;;;;;;;;;;;;;;10.81;63.34;100709.91;4794797;29;120755;-88
2022/02/23 00:23:06;;;;;;;39.30;6.93;;;;;;;10.69;63.50;100699.81;4818153;29;122658;-88
2022/02/23 00:25:35;;;;;;;38.05;7.38;;;;;;;10.57;62.64;100678.72;4794848;29;123084;-89
2022/02/23 00:28:01;;;;;;;35.33;7.18;;;;;;;10.76;62.32;100702.28;4798993;29;120641;-88
2022/02/23 00:30:26;;;;;;;46.83;8.07;;;;;;;10.80;63.39;100708.41;4796156;29;123323;-86
2022/02/23 00:32:52;;;;;;;40.20;8.13;;;;;;;10.73;63.86;100708.69;4811865;29;120513;-88
2022/02/23 00:35:21;;;;;;;51.20;8.50;;;;;;;10.86;63.89;100725.78;4795407;29;121391;-87
2022/02/23 00:37:46;;;;;;;45.63;7.88;;;;;;;10.56;64.49;100688.16;4789570;29;120484;-87
2022/02/23 00:40:15;;;;;;;41.65;8.32;;;;;;;10.48;64.93;100664.97;4811467;29;121705;-86
2022/02/23 00:42:41;;;;;;;50.95;8.88;;;;;;;10.79;64.52;100711.59;4795211;29;121727;-87
2022/02/23 00:45:10;;;;;;;43.75;8.48;;;;;;;10.83;63.57;100718.47;4792210;29;122935;-89
2022/02/23 00:47:38;;;;;;;45.53;8.68;;;;;;;10.64;64.07;100679.19;4799404;29;119654;-86
2022/02/23 00:50:05;;;;;;;45.70;8.25;;;;;;;11.05;63.95;100756.84;4783186;29;122837;-84
2022/02/23 00:52:30;;;;;;;43.63;8.88;;;;;;;10.73;64.20;100705.94;4796258;29;120310;-86
2022/02/23 00:54:56;;;;;;;50.17;8.70;;;;;;;10.81;62.88;100723.63;4797742;29;121840;-86
2022/02/23 00:57:21;;;;;;;44.22;8.43;;;;;;;10.63;63.91;100702.38;4799464;29;122611;-85
2022/02/23 00:59:48;;;;;;;50.88;8.80;;;;;;;10.82;62.79;100746.34;4797332;29;120413;-87
2022/02/23 01:02:14;;;;;;;45.97;7.78;;;;;;;10.80;63.12;100735.84;4797121;29;121724;-89
2022/02/23 01:04:40;;;;;;;45.30;8.38;;;;;;;10.85;63.28;100753.69;4796857;29;120303;-86
2022/02/23 01:07:06;;;;;;;43.03;7.82;;;;;;;10.96;62.79;100771.28;4798465;29;119939;-86
2022/02/23 01:09:35;;;;;;;44.55;9.15;;;;;;;10.67;62.22;100732.44;4802297;29;120897;-87
2022/02/23 01:12:00;;;;;;;46.92;8.18;;;;;;;10.74;63.94;100762.34;4798304;29;121133;-85
2022/02/23 01:14:26;;;;;;;50.95;9.05;;;;;;;10.63;63.51;100743.50;4796309;29;121655;-88
2022/02/23 01:16:52;;;;;;;51.38;7.82;;;;;;;10.78;62.50;100784.91;4825442;28;120662;-88
2022/02/23 01:19:17;;;;;;;51.03;8.25;;;;;;;10.49;62.18;100732.31;4795771;29;121856;-87
2022/02/23 01:21:43;;;;;;;50.72;8.60;;;;;;;10.42;63.52;100727.88;4796713;29;121795;-87
2022/02/23 01:24:09;;;;;;;41.38;8.40;;;;;;;10.46;62.82;100736.72;4827853;28;120829;-85
2022/02/23 01:26:35;;;;;;;50.25;8.95;;;;;;;10.49;63.09;100743.28;4797700;29;119987;-88
2022/02/23 01:29:01;;;;;;;40.90;7.93;;;;;;;10.74;62.70;100785.03;4794085;29;123167;-88
2022/02/23 01:31:29;;;;;;;49.67;7.88;;;;;;;10.53;63.25;100747.44;4800698;29;123476;-88
2022/02/23 01:33:54;;;;;;;38.45;7.72;;;;;;;10.81;62.46;100788.72;4799780;29;119731;-88
2022/02/23 01:36:20;;;;;;;45.95;8.02;;;;;;;10.77;63.67;100786.13;4800108;29;120047;-87
2022/02/23 01:38:46;;;;;;;51.20;8.63;;;;;;;10.87;62.66;100801.41;4815213;29;120326;-86
2022/02/23 01:41:17;;;;;;;46.97;8.45;;;;;;;10.42;63.19;100749.81;4800020;29;120246;-88
2022/02/23 01:43:44;;;;;;;40.67;7.95;;;;;;;10.74;62.96;100803.50;4789992;29;121175;-87
2022/02/23 01:46:11;;;;;;;49.28;8.60;;;;;;;10.81;63.20;100814.19;4806995;29;121808;-86
2022/02/23 01:48:37;;;;;;;58.33;12.00;;;;;;;10.89;63.10;100840.16;4810758;29;119822;-86
2022/02/23 01:51:02;;;;;;;47.20;11.43;;;;;;;10.84;63.05;100829.00;4812284;29;120320;-86
2022/02/23 01:53:28;;;;;;;48.00;10.20;;;;;;;10.84;63.78;100834.47;4815378;29;119940;-87
2022/02/23 01:55:54;;;;;;;40.67;9.18;;;;;;;10.84;64.25;100840.72;4791413;29;123031;-88
2022/02/23 01:58:19;;;;;;;50.92;10.43;;;;;;;10.89;64.18;100859.38;4800882;29;120149;-87
2022/02/23 02:00:45;;;;;;;53.72;10.32;;;;;;;11.00;63.11;100869.97;4812668;29;119767;-84
2022/02/23 02:03:11;;;;;;;46.35;8.52;;;;;;;10.99;63.27;100873.91;4780017;29;124302;-86
2022/02/23 02:05:37;;;;;;;50.03;8.63;;;;;;;11.00;63.32;100891.91;4811718;29;119911;-83
2022/02/23 02:08:02;;;;;;;48.40;9.75;;;;;;;10.87;64.09;100872.75;4799254;29;119569;-86
2022/02/23 02:10:28;;;;;;;51.92;10.27;;;;;;;11.03;64.80;100891.78;4773500;29;1193778;-87
2022/02/23 02:12:54;;;;;;;40.97;8.45;;;;;;;11.03;63.97;100902.75;4803455;29;120860;-86
2022/02/23 02:15:20;;;;;;;46.28;8.93;;;;;;;11.05;63.83;100894.84;4804106;29;120276;-86
2022/02/23 02:17:45;;;;;;;51.55;9.25;;;;;;;10.98;63.01;100897.09;4797818;29;120252;-84
2022/02/23 02:20:11;;;;;;;46.92;8.52;;;;;;;11.04;63.57;100909.78;4798150;29;122373;-85
2022/02/23 02:22:38;;;;;;;48.58;8.27;;;;;;;11.16;64.03;100910.94;4797096;29;124222;-85
2022/02/23 02:25:04;;;;;;;45.92;8.95;;;;;;;11.16;64.71;100913.69;4811726;29;120624;-85
2022/02/23 02:27:31;;;;;;;47.83;8.27;;;;;;;11.21;64.02;100923.31;4812960;29;120005;-84
2022/02/23 02:29:56;;;;;;;52.15;8.95;;;;;;;11.25;64.33;100926.69;4781657;29;122844;-86
2022/02/23 02:32:22;;;;;;;43.80;8.55;;;;;;;11.30;64.12;100931.59;4796983;29;119864;-86
2022/02/23 02:34:48;;;;;;;40.20;8.55;;;;;;;11.30;64.25;100909.63;4800393;29;121862;-84
2022/02/23 02:37:17;;;;;;;48.35;9.25;;;;;;;11.37;64.02;100936.84;4798006;29;119830;-89
2022/02/23 02:39:45;;;;;;;45.60;8.75;;;;;;;11.33;64.64;100911.47;4797328;29;121909;-89
2022/02/23 02:42:11;;;;;;;43.03;8.10;;;;;;;11.42;63.32;100933.50;4798004;29;120094;-88
2022/02/23 02:44:37;;;;;;;43.60;8.75;;;;;;;11.41;63.01;100947.69;4793065;29;119778;-86
2022/02/23 02:47:03;;;;;;;43.95;8.20;;;;;;;11.38;61.87;100943.88;4813260;29;119592;-85
2022/02/23 02:49:29;;;;;;;46.95;8.65;;;;;;;11.22;62.40;100924.84;4829658;28;120226;-83
2022/02/23 02:51:55;;;;;;;46.80;8.20;;;;;;;11.20;62.17;100932.78;4796472;29;119649;-85
2022/02/23 02:54:21;;;;;;;44.05;8.02;;;;;;;11.08;63.22;100915.13;4783164;29;120558;-86
2022/02/23 02:56:48;;;;;;;44.65;7.78;;;;;;;11.17;62.40;100936.41;4802292;29;123208;-83
2022/02/23 02:59:14;;;;;;;40.08;7.53;;;;;;;11.19;62.12;100942.22;4798779;29;120165;-87
2022/02/23 03:01:39;;;;;;;39.35;7.72;;;;;;;11.22;62.28;100957.78;4811343;29;119968;-86
2022/02/23 03:04:09;;;;;;;45.88;8.52;;;;;;;11.19;61.96;100955.94;4797941;29;119686;-85
2022/02/23 03:06:36;;;;;;;41.63;8.52;;;;;;;11.14;62.42;100957.28;4801970;29;122023;-85
2022/02/23 03:09:03;;;;;;;43.45;8.10;;;;;;;11.13;62.02;100965.97;4811162;29;120075;-84
2022/02/23 03:11:29;;;;;;;48.80;8.55;;;;;;;11.12;61.61;100962.47;4795871;29;119659;-87
2022/02/23 03:13:55;;;;;;;36.95;7.63;;;;;;;11.05;62.49;100957.97;4787222;29;121981;-86
2022/02/23 03:16:21;;;;;;;35.72;7.32;;;;;;;11.15;61.49;100963.56;4793812;29;123484;-86
2022/02/23 03:18:50;;;;;;;35.45;6.93;;;;;;;11.13;61.56;100960.50;4800907;29;120041;-82
2022/02/23 03:21:16;;;;;;;38.25;7.70;;;;;;;11.05;61.76;100960.72;4797456;29;124760;-86
2022/02/23 03:23:42;;;;;;;39.85;8.05;;;;;;;11.04;61.13;100967.44;4798182;29;120406;-86
2022/02/23 03:26:10;;;;;;;40.28;7.18;;;;;;;11.02;61.03;100964.38;4797439;29;122932;-83
2022/02/23 03:28:36;;;;;;;36.63;7.53;;;;;;;10.95;60.92;100964.63;4801717;29;122943;-85
2022/02/23 03:31:03;;;;;;;39.78;7.22;;;;;;;10.85;60.72;100957.50;4811735;29;119755;-83
2022/02/23 03:33:29;;;;;;;41.13;7.40;;;;;;;10.81;61.04;100965.09;4827915;28;119920;-85
2022/02/23 03:35:55;;;;;;;40.05;7.65;;;;;;;10.81;61.76;100972.56;4797544;29;119928;-85
2022/02/23 03:38:20;;;;;;;37.38;7.10;;;;;;;10.77;61.54;100967.22;4812083;29;119800;-87
2022/02/23 03:40:46;;;;;;;38.83;7.35;;;;;;;10.82;61.04;100977.63;4799179;29;121928;-85
2022/02/23 03:43:16;;;;;;;45.35;7.63;;;;;;;10.73;61.21;100972.81;4792444;29;121157;-86
2022/02/23 03:45:42;;;;;;;37.80;7.13;;;;;;;10.82;61.77;100982.34;4797394;29;122328;-86
2022/02/23 03:48:07;;;;;;;33.38;6.40;;;;;;;10.80;60.78;100987.50;4796939;29;122698;-86
2022/02/23 03:50:33;;;;;;;33.53;7.10;;;;;;;10.87;61.18;100998.22;4794929;29;121439;-84
2022/02/23 03:52:58;;;;;;;44.28;7.85;;;;;;;10.85;61.06;100998.69;4811206;29;120488;-85
2022/02/23 03:55:24;;;;;;;38.60;6.95;;;;;;;10.74;60.81;100995.53;4797587;29;123375;-87
2022/02/23 03:57:49;;;;;;;40.72;7.13;;;;;;;10.84;61.08;101013.59;4781527;29;119896;-87
2022/02/23 04:00:16;;;;;;;42.80;7.20;;;;;;;10.85;60.73;101017.88;4811927;29;119489;-86
2022/02/23 04:02:43;;;;;;;42.60;7.25;;;;;;;10.79;61.04;101022.41;4798851;29;120670;-84
2022/02/23 04:05:12;;;;;;;44.22;7.63;;;;;;;10.73;61.60;101015.97;4799037;29;123801;-86
2022/02/23 04:07:38;;;;;;;45.08;7.43;;;;;;;10.75;61.62;101030.75;4795203;29;123037;-85
2022/02/23 04:10:07;;;;;;;50.28;8.45;;;;;;;10.76;61.27;101048.75;4827427;28;119569;-84
2022/02/23 04:12:33;;;;;;;40.83;7.80;;;;;;;10.76;62.11;101056.22;4812882;29;120591;-84
2022/02/23 04:15:02;;;;;;;40.70;7.75;;;;;;;10.78;61.31;101056.56;4797447;29;122605;-85
2022/02/23 04:17:28;;;;;;;39.15;8.40;;;;;;;10.86;62.38;101065.31;4780688;29;119785;-84
2022/02/23 04:19:53;;;;;;;33.88;7.00;;;;;;;10.83;63.44;101058.72;4812607;29;122103;-87
2022/02/23 04:22:21;;;;;;;40.65;7.53;;;;;;;10.93;62.23;101067.84;4796876;29;120344;-85
2022/02/23 04:24:50;;;;;;;35.67;6.88;;;;;;;11.00;62.02;101090.31;4800110;29;119709;-86
2022/02/23 04:27:15;;;;;;;45.50;7.85;;;;;;;10.93;60.91;101076.06;4797097;29;122974;-86
2022/02/23 04:29:41;;;;;;;39.55;7.30;;;;;;;11.02;61.45;101087.88;4797182;29;120508;-86
2022/02/23 04:32:07;;;;;;;39.25;8.18;;;;;;;11.02;61.63;101096.13;4794675;29;122825;-85
2022/02/23 04:34:32;;;;;;;42.88;7.60;;;;;;;10.98;62.18;101068.03;4797065;29;124371;-85
2022/02/23 04:36:58;;;;;;;34.80;6.47;;;;;;;11.07;61.09;101097.53;4797890;29;119708;-86
2022/02/23 04:39:23;;;;;;;38.63;6.70;;;;;;;11.03;60.83;101102.38;4794913;29;121981;-84
2022/02/23 04:41:51;;;;;;;37.72;7.05;;;;;;;11.04;60.22;101107.44;4800583;29;119995;-87
2022/02/23 04:44:17;;;;;;;36.28;6.63;;;;;;;11.01;60.90;101102.06;4830890;28;121064;-86
2022/02/23 04:46:42;;;;;;;42.90;7.03;;;;;;;11.07;60.04;101117.53;4795355;29;123393;-85
2022/02/23 04:49:11;;;;;;;28.95;5.82;;;;;;;11.09;59.50;101117.06;4810256;29;119721;-83
2022/02/23 04:51:38;;;;;;;34.85;6.65;;;;;;;11.08;60.29;101130.03;4798294;29;119554;-86
2022/02/23 04:54:04;;;;;;;31.55;6.07;;;;;;;11.10;61.00;101128.81;4795475;29;120168;-86
2022/02/23 04:56:29;;;;;;;36.03;6.80;;;;;;;11.16;60.42;101135.31;4807937;29;119659;-86
2022/02/23 04:58:55;;;;;;;34.30;6.40;;;;;;;11.01;60.73;101115.78;4797312;29;121843;-86
2022/02/23 05:01:21;;;;;;;33.67;6.85;;;;;;;11.16;60.52;101140.81;4792160;29;121012;-85
2022/02/23 05:03:47;;;;;;;34.63;6.75;;;;;;;11.04;61.20;101132.13;4794329;29;121656;-86
2022/02/23 05:06:13;;;;;;;37.33;7.85;;;;;;;11.04;60.36;101139.59;4801244;29;119699;-87
2022/02/23 05:08:38;;;;;;;42.50;6.45;;;;;;;11.10;60.09;101165.28;4795393;29;119670;-86
2022/02/23 05:11:04;;;;;;;36.53;6.95;;;;;;;11.13;60.43;101169.16;4780180;29;121519;-86
2022/02/23 05:13:33;;;;;;;31.88;6.03;;;;;;;11.12;60.32;101176.63;4803639;29;120813;-85
2022/02/23 05:16:02;;;;;;;41.58;6.78;;;;;;;11.12;61.37;101173.06;4796740;29;119667;-86
2022/02/23 05:18:29;;;;;;;35.03;7.20;;;;;;;11.14;60.60;101178.91;4798246;29;120029;-87
2022/02/23 05:21:00;;;;;;;31.95;6.10;;;;;;;11.13;60.36;101175.41;4778822;29;123270;-85
2022/02/23 05:23:27;;;;;;;36.70;7.00;;;;;;;11.16;59.87;101177.28;4827709;28;120383;-84
2022/02/23 05:25:56;;;;;;;37.50;7.85;;;;;;;11.15;59.79;101188.69;4797395;29;119842;-86
2022/02/23 05:28:24;;;;;;;39.25;7.22;;;;;;;11.15;61.46;101185.94;4798079;29;120116;-84
2022/02/23 05:30:50;;;;;;;33.55;7.18;;;;;;;11.19;60.51;101187.38;4811087;29;119704;-85
2022/02/23 05:33:16;;;;;;;37.05;6.78;;;;;;;11.20;59.79;101191.66;4813718;29;121639;-86
2022/02/23 05:35:41;;;;;;;33.67;6.32;;;;;;;11.11;60.17;101188.78;4799106;29;120033;-86
2022/02/23 05:38:10;;;;;;;30.17;6.47;;;;;;;11.17;60.11;101209.00;4812721;29;119810;-86
2022/02/23 05:40:36;;;;;;;32.95;6.30;;;;;;;11.13;59.50;101207.59;4793563;29;122502;-85
2022/02/23 05:43:04;;;;;;;37.13;7.13;;;;;;;11.15;59.54;101205.94;4798382;29;120592;-88
2022/02/23 05:45:30;;;;;;;32.05;5.97;;;;;;;11.12;60.28;101226.03;4795133;29;121932;-86
2022/02/23 05:47:55;;;;;;;36.33;6.95;;;;;;;11.01;59.74;101215.38;4798655;29;123647;-87
2022/02/23 05:50:21;;;;;;;36.13;7.10;;;;;;;10.96;60.40;101210.44;4802271;29;121246;-85
2022/02/23 05:52:46;;;;;;;33.97;6.20;;;;;;;11.00;59.29;101226.78;4813656;29;120109;-86
2022/02/23 05:55:12;;;;;;;42.40;6.43;;;;;;;10.97;59.94;101239.44;4799572;29;119502;-87
2022/02/23 05:57:38;;;;;;;32.70;6.47;;;;;;;10.90;61.15;101231.41;4797509;29;119980;-85
2022/02/23 06:00:05;;;;;;;39.28;6.95;;;;;;;10.98;61.32;101246.47;4782343;29;122738;-85
2022/02/23 06:02:37;;;;;;;39.33;7.10;;;;;;;11.10;61.46;101263.34;4798688;29;119669;-86
2022/02/23 06:05:03;;;;;;;43.03;7.68;;;;;;;11.04;62.52;101249.41;4801621;29;119757;-87
2022/02/23 06:07:30;;;;;;;35.65;7.32;;;;;;;11.07;62.74;101270.50;4813328;29;120921;-86
2022/02/23 06:09:56;;;;;;;41.88;7.20;;;;;;;11.14;63.26;101270.28;4811995;29;119904;-85
2022/02/23 06:12:21;;;;;;;35.03;6.95;;;;;;;11.09;61.61;101262.59;4803207;29;119800;-86
2022/02/23 06:14:47;;;;;;;43.30;7.40;;;;;;;11.16;62.18;101278.09;4799252;29;120691;-86
2022/02/23 06:17:12;;;;;;;40.80;6.85;;;;;;;11.04;61.81;101274.88;4799537;29;120052;-87
2022/02/23 06:19:38;;;;;;;41.70;8.27;;;;;;;11.18;61.96;101286.66;4801686;29;123850;-85
2022/02/23 06:22:04;;;;;;;45.08;8.05;;;;;;;11.08;62.43;101274.78;4783071;29;120086;-85
2022/02/23 06:24:35;;;;;;;41.55;7.55;;;;;;;11.12;63.59;101275.47;4799215;29;122128;-86
2022/02/23 06:27:04;;;;;;;43.20;7.65;;;;;;;11.15;61.70;101276.56;4809611;29;120724;-86
2022/02/23 06:29:32;;;;;;;36.83;7.13;;;;;;;11.21;64.29;101302.25;4814819;29;120454;-86
2022/02/23 06:32:02;;;;;;;46.35;8.27;;;;;;;11.18;62.29;101287.44;4797300;29;122384;-86
2022/02/23 06:34:34;;;;;;;41.92;7.88;;;;;;;11.21;62.60;101307.75;4801367;29;123487;-87
2022/02/23 06:37:02;;;;;;;41.88;7.85;;;;;;;11.12;61.55;101296.63;4798915;29;122205;-85
2022/02/23 06:39:38;;;;;;;41.95;7.45;;;;;;;11.12;61.16;101305.66;4796288;29;120039;-86
2022/02/23 06:42:04;;;;;;;40.08;7.90;;;;;;;11.16;61.44;101322.03;4795896;29;119847;-87
2022/02/23 06:44:33;;;;;;;48.70;8.35;;;;;;;11.16;61.73;101316.53;4784689;29;120154;-87
2022/02/23 06:47:00;;;;;;;51.88;8.93;;;;;;;11.20;60.66;101322.69;4818194;29;122605;-86
2022/02/23 06:49:28;;;;;;;45.90;8.40;;;;;;;11.23;61.38;101332.78;4810747;29;119861;-88
2022/02/23 06:51:57;;;;;;;49.35;8.35;;;;;;;11.24;61.47;101334.31;4797912;29;120034;-87
2022/02/23 06:54:25;;;;;;;41.83;8.60;;;;;;;11.24;62.03;101328.81;4796248;29;123439;-84
2022/02/23 06:56:50;;;;;;;42.80;7.78;;;;;;;11.27;62.40;101327.94;4799237;29;120855;-85
2022/02/23 06:59:17;;;;;;;46.35;9.55;;;;;;;11.40;63.35;101342.47;4796258;29;123538;-84
2022/02/23 07:01:43;;;;;;;52.05;9.10;;;;;;;11.47;62.07;101338.72;4802659;29;120065;-86
2022/02/23 07:04:09;;;;;;;44.75;7.05;;;;;;;11.50;62.88;101343.31;4800641;29;122417;-86
2022/02/23 07:06:35;;;;;;;48.42;8.40;;;;;;;11.50;64.15;101324.88;4812633;29;120264;-87
2022/02/23 07:09:00;;;;;;;44.17;9.27;;;;;;;11.63;63.20;101338.59;4797570;29;119578;-84
2022/02/23 07:11:27;;;;;;;45.58;9.05;;;;;;;11.75;61.74;101356.28;4813434;29;120438;-85
2022/02/23 07:13:54;;;;;;;43.28;8.25;;;;;;;11.76;62.43;101357.81;4797327;29;122717;-84
2022/02/23 07:16:23;;;;;;;46.70;8.77;;;;;;;11.72;61.29;101354.41;4800969;29;120276;-84
2022/02/23 07:18:48;;;;;;;42.22;7.93;;;;;;;11.67;61.13;101351.03;4814877;29;122924;-84
2022/02/23 07:21:14;;;;;;;44.90;8.30;;;;;;;11.59;60.80;101341.47;4796855;29;122101;-87
2022/02/23 07:23:40;;;;;;;47.03;8.43;;;;;;;11.71;62.08;101353.66;4797565;29;119810;-85
2022/02/23 07:26:06;;;;;;;49.17;8.63;;;;;;;11.68;61.40;101349.81;4814141;29;119991;-87
2022/02/23 07:28:31;;;;;;;49.05;9.45;;;;;;;11.75;62.00;101362.53;4798009;29;121781;-85
2022/02/23 07:30:57;;;;;;;46.78;8.80;;;;;;;11.80;62.46;101364.75;4796312;29;121655;-84
2022/02/23 07:33:23;;;;;;;59.08;9.70;;;;;;;11.83;61.80;101350.16;4795339;29;123208;-87
2022/02/23 07:35:48;;;;;;;47.13;8.77;;;;;;;11.82;61.18;101354.09;4797852;29;120353;-85
2022/02/23 07:38:14;;;;;;;45.80;8.82;;;;;;;11.83;61.01;101352.09;4814522;29;119891;-85
2022/02/23 07:40:40;;;;;;;46.60;8.90;;;;;;;11.76;60.76;101342.09;4797998;29;119588;-85
2022/02/23 07:43:06;;;;;;;48.03;8.30;;;;;;;11.99;60.90;101368.47;4801891;29;121571;-86
2022/02/23 07:45:33;;;;;;;46.47;9.50;;;;;;;12.05;61.22;101369.44;4796607;29;120358;-85
2022/02/23 07:47:59;;;;;;;43.38;7.95;;;;;;;12.10;61.61;101377.16;4796647;29;119889;-86
2022/02/23 07:50:25;;;;;;;50.47;9.10;;;;;;;12.16;61.10;101386.38;4797401;29;122554;-85
2022/02/23 07:52:51;;;;;;;49.30;10.43;;;;;;;12.08;61.40;101371.34;4781416;29;123241;-86
2022/02/23 07:55:17;;;;;;;46.38;7.88;;;;;;;12.15;61.46;101384.84;4778122;29;119634;-87
2022/02/23 07:57:47;;;;;;;44.17;8.68;;;;;;;12.07;61.55;101358.78;4812936;29;119806;-86
2022/02/23 08:00:18;;;;;;;43.47;8.07;;;;;;;12.39;61.18;101389.94;4816297;29;124135;-86
2022/02/23 08:02:44;;;;;;;55.67;8.40;;;;;;;12.15;61.14;101364.81;4799401;29;119716;-85
2022/02/23 08:05:09;;;;;;;47.22;9.00;;;;;;;12.36;61.19;101393.59;4799626;29;122538;-88
2022/02/23 08:07:35;;;;;;;40.40;8.35;;;;;;;12.04;60.56;101340.41;4800032;29;119561;-86
2022/02/23 08:10:04;;;;;;;37.40;8.25;;;;;;;12.32;60.68;101370.94;4813616;29;122243;-87
2022/02/23 08:12:31;;;;;;;43.05;8.43;;;;;;;12.39;60.73;101376.19;4803763;29;121012;-85
2022/02/23 08:19:30;;;;;;;44.05;8.75;;;;;;;12.62;61.66;101419.78;4812564;29;119918;-85
2022/02/23 08:20:41;;;;;;;41.20;7.93;;;;;;;12.39;61.80;101376.19;4809354;29;120224;-86
2022/02/23 08:23:11;;;;;;;43.38;8.63;;;;;;;12.68;60.87;101420.00;4813852;29;120123;-86
2022/02/23 08:25:39;;;;;;;40.30;8.18;;;;;;;12.29;60.50;101367.84;4797453;29;123240;-86
2022/02/23 08:28:16;;;;;;;;;;;;;;;;;;;;;
2022/02/23 08:30:42;;;;;;;45.95;9.00;;;;;;;12.58;60.81;101419.94;4789550;29;121870;-85
2022/02/23 08:33:08;;;;;;;41.58;7.70;;;;;;;12.67;60.31;101435.75;4796570;29;120524;-86
2022/02/23 08:35:33;;;;;;;42.25;8.02;;;;;;;12.80;60.44;101453.00;4798248;29;119991;-84
2022/02/23 08:37:59;;;;;;;36.30;7.43;;;;;;;12.74;59.39;101441.00;4812080;29;119666;-85
2022/02/23 08:40:26;;;;;;;43.10;8.30;;;;;;;12.75;60.39;101448.03;4794782;29;122221;-85
2022/02/23 08:42:53;;;;;;;39.85;7.30;;;;;;;12.83;61.18;101440.31;4799495;29;119768;-86
2022/02/23 08:45:19;;;;;;;43.97;8.10;;;;;;;12.82;59.67;101438.78;4817797;29;122185;-85
2022/02/23 08:47:45;;;;;;;50.33;8.90;;;;;;;12.87;60.62;101438.97;4799770;29;120011;-87
2022/02/23 08:50:10;;;;;;;38.78;9.30;;;;;;;13.02;60.20;101455.00;4781254;29;121989;-85
2022/02/23 08:52:36;;;;;;;38.15;7.88;;;;;;;13.11;61.26;101463.31;4806767;29;119868;-83
2022/02/23 08:55:02;;;;;;;42.38;8.77;;;;;;;13.16;61.09;101460.72;4797053;29;119941;-86
2022/02/23 08:57:28;;;;;;;44.53;7.93;;;;;;;13.20;61.52;101461.41;4795546;29;120267;-85
2022/02/23 08:59:54;;;;;;;43.00;8.52;;;;;;;13.25;60.42;101457.31;4795643;29;122981;-84
2022/02/23 09:02:20;;;;;;;40.33;8.23;;;;;;;13.20;59.32;101435.84;4794228;29;121511;-85
2022/02/23 09:04:45;;;;;;;48.08;9.25;;;;;;;13.32;58.92;101462.56;4782157;29;122281;-84
2022/02/23 09:07:13;;;;;;;44.83;9.25;;;;;;;13.38;60.21;101471.78;4793578;29;120590;-84
2022/02/23 09:09:39;;;;;;;42.97;8.32;;;;;;;13.20;60.38;101444.09;4787016;29;122353;-84
2022/02/23 09:12:07;;;;;;;43.58;7.80;;;;;;;13.38;60.24;101463.50;4795764;29;124218;-85
2022/02/23 09:14:33;;;;;;;46.50;8.45;;;;;;;13.23;60.44;101442.44;4794299;29;120045;-85
2022/02/23 09:16:58;;;;;;;46.00;8.60;;;;;;;13.38;59.08;101462.72;4795547;29;122048;-85
2022/02/23 09:19:24;;;;;;;40.53;8.40;;;;;;;13.33;59.29;101455.81;4810577;29;122793;-85
2022/02/23 09:21:50;;;;;;;43.75;7.50;;;;;;;13.58;60.26;101479.69;4795071;29;121220;-85
2022/02/23 09:24:15;;;;;;;43.13;8.55;;;;;;;13.35;59.59;101447.09;4782655;29;121909;-85
2022/02/23 09:26:41;;;;;;;47.55;8.52;;;;;;;13.30;59.95;101440.19;4802312;29;120415;-84
2022/02/23 09:29:07;;;;;;;40.17;8.18;;;;;;;13.32;58.81;101431.47;4801299;29;119682;-85
2022/02/23 09:31:35;;;;;;;40.10;8.13;;;;;;;13.34;60.28;101426.28;4792153;29;121351;-85
2022/02/23 09:34:03;;;;;;;37.78;7.32;;;;;;;13.46;59.66;101434.44;4808313;29;120222;-85
2022/02/23 09:36:30;;;;;;;40.10;7.90;;;;;;;13.70;58.86;101467.03;4809707;29;119944;-86
2022/02/23 09:38:55;;;;;;;45.92;7.78;;;;;;;13.56;59.05;101443.53;4805667;29;120864;-85
2022/02/23 09:41:22;;;;;;;39.65;7.97;;;;;;;13.44;58.81;101425.09;4810114;29;121004;-83
2022/02/23 09:43:52;;;;;;;37.13;7.85;;;;;;;13.88;58.64;101478.13;4793266;29;122941;-84
2022/02/23 09:46:21;;;;;;;41.72;7.82;;;;;;;13.48;57.72;101415.47;4794943;29;123381;-86
2022/02/23 09:48:49;;;;;;;40.78;8.20;;;;;;;13.69;60.09;101457.22;4809142;29;121703;-84
2022/02/23 09:51:15;;;;;;;34.47;7.40;;;;;;;13.72;59.54;101445.28;4808082;29;123052;-84
2022/02/23 09:53:45;;;;;;;37.60;7.25;;;;;;;14.01;58.52;101478.06;4823269;29;120553;-86
2022/02/23 09:56:18;;;;;;;37.90;7.95;;;;;;;13.92;57.59;101464.97;4804672;29;122805;-84
2022/02/23 09:58:46;;;;;;;44.17;7.93;;;;;;;13.79;59.87;101451.31;4799552;29;123213;-85
2022/02/23 10:01:15;;;;;;;38.17;7.07;;;;;;;14.16;58.52;101486.50;4781920;29;120026;-85
2022/02/23 10:03:51;;;;;;;34.08;7.35;;;;;;;13.77;58.52;101417.13;4796049;29;122607;-85
2022/02/23 10:06:20;;;;;;;32.55;6.95;;;;;;;13.99;58.33;101442.66;4810603;29;123066;-85
2022/02/23 10:08:49;;;;;;;36.05;7.00;;;;;;;13.91;58.43;101435.09;4806537;29;120014;-82
2022/02/23 10:11:19;;;;;;;32.38;7.55;;;;;;;14.14;57.50;101475.94;4794726;29;122093;-85
2022/02/23 10:13:49;;;;;;;35.25;7.90;;;;;;;14.25;58.35;101492.84;4803260;29;119761;-85
2022/02/23 10:16:15;;;;;;;41.63;7.53;;;;;;;14.25;57.69;101481.03;4822498;29;121978;-84
2022/02/23 10:18:40;;;;;;;39.08;8.13;;;;;;;14.28;57.44;101488.41;4796265;29;123595;-83
2022/02/23 10:21:07;;;;;;;36.90;7.18;;;;;;;14.40;57.38;101490.25;4810531;29;120316;-85
2022/02/23 10:23:33;;;;;;;32.95;7.43;;;;;;;14.44;56.89;101493.69;4797521;29;119761;-84
2022/02/23 10:26:05;;;;;;;39.97;7.60;;;;;;;14.46;56.14;101496.75;4796182;29;123037;-85
2022/02/23 10:28:34;;;;;;;34.35;6.85;;;;;;;14.46;57.35;101501.50;4805254;29;119787;-85
2022/02/23 10:31:03;;;;;;;41.00;8.85;;;;;;;14.56;57.93;101509.34;4806757;29;120074;-84
2022/02/23 10:33:38;;;;;;;35.13;7.30;;;;;;;14.60;56.29;101515.47;4797857;29;123326;-84
2022/02/23 10:36:05;;;;;;;36.53;7.75;;;;;;;14.36;57.63;101482.13;4793599;29;122011;-84
2022/02/23 10:38:37;;;;;;;34.72;7.65;;;;;;;14.60;57.65;101518.22;4793018;29;122911;-84
2022/02/23 10:41:08;;;;;;;41.75;9.15;;;;;;;14.30;57.48;101464.63;4794926;29;120334;-85
2022/02/23 10:43:43;;;;;;;41.13;8.07;;;;;;;14.30;58.75;101461.09;4810084;29;120191;-85
2022/02/23 10:46:15;;;;;;;37.60;7.65;;;;;;;14.45;58.65;101472.38;4795998;29;123246;-85
2022/02/23 10:48:48;;;;;;;36.17;8.38;;;;;;;14.44;57.47;101468.84;4796154;29;119822;-84
2022/02/23 10:51:22;;;;;;;36.72;7.85;;;;;;;14.58;57.40;101471.00;4811304;29;119580;-84
2022/02/23 10:53:50;;;;;;;35.72;7.35;;;;;;;14.63;55.63;101499.97;4795521;29;123352;-83
2022/02/23 10:56:29;;;;;;;26.75;6.93;;;;;;;14.67;55.82;101523.47;4799988;29;121325;-84
2022/02/23 10:59:19;;;;;;;31.52;7.50;;;;;;;14.60;55.45;101514.69;4796321;29;123149;-85
2022/02/23 11:01:47;;;;;;;37.58;7.88;;;;;;;14.55;55.81;101532.66;4785414;29;120034;-86
2022/02/23 11:04:13;;;;;;;31.60;7.53;;;;;;;14.31;55.99;101502.03;4802804;29;120079;-84
2022/02/23 11:06:40;;;;;;;35.28;7.18;;;;;;;14.40;58.09;101531.66;4796538;29;123355;-85
2022/02/23 11:09:07;;;;;;;32.35;6.95;;;;;;;14.40;58.19;101526.13;4796888;29;121062;-85
2022/02/23 11:11:33;;;;;;;37.83;7.85;;;;;;;14.37;57.45;101513.25;4797276;29;122169;-85